Аэропорт: Одесса. Одесса

ICAO: UKOO

METAR:
2021-01-19 11:00:00
UKOO 191100Z 29004MPS CAVOK M12/M16 Q1022 R34/420245 NOSIG
METAR:
2021-01-19 05:08:00
TAF UKOO 190508Z 1906/2006 30003MPS 2100 -SHSN BR SCT004 BKN007 SCT015CB PROB40 TEMPO 1906/1909 0400 FZFG VV002 BECMG 1909/1910 6000 NSW BECMG 1918/1919 23003MPS 2100 BR